createdAt,value
2018-04-25T00:01:43.530Z,25.5
2018-04-25T00:11:42.738Z,25.5
2018-04-25T00:21:42.276Z,25.5
2018-04-25T00:31:41.196Z,25.5
2018-04-25T00:41:40.710Z,25.5
2018-04-25T00:51:39.948Z,25.5
2018-04-25T01:01:38.915Z,25.4
2018-04-25T01:11:38.834Z,25.4
2018-04-25T01:21:37.293Z,25.4
2018-04-25T01:31:36.818Z,25.4
2018-04-25T01:41:35.705Z,25.4
2018-04-25T01:51:35.190Z,25.4
2018-04-25T02:01:34.119Z,25.4
2018-04-25T02:11:33.795Z,25.4
2018-04-25T02:21:32.565Z,25.4
2018-04-25T02:31:31.819Z,25.4
2018-04-25T02:41:30.988Z,25.5
2018-04-25T02:51:30.255Z,25.4
2018-04-25T03:01:30.015Z,25.4
2018-04-25T03:11:29.006Z,25.4
2018-04-25T03:21:27.860Z,25.4
2018-04-25T03:31:27.364Z,25.3
2018-04-25T03:41:26.285Z,25.3
2018-04-25T03:51:25.506Z,25.3
2018-04-25T04:01:25.109Z,25.3
2018-04-25T04:11:23.958Z,25.2
2018-04-25T04:21:23.506Z,25.3
2018-04-25T04:31:22.397Z,25.3
2018-04-25T04:41:21.625Z,25.2
2018-04-25T04:51:20.836Z,25.2
2018-04-25T05:01:20.062Z,25.1
2018-04-25T05:11:19.559Z,25.1
2018-04-25T05:21:18.482Z,25.1
2018-04-25T05:31:17.745Z,25.1
2018-04-25T05:41:17.208Z,25.1
2018-04-25T05:51:16.520Z,25.1
2018-04-25T06:01:15.451Z,25.1
2018-04-25T06:11:14.949Z,25.1
2018-04-25T06:21:13.802Z,25.1
2018-04-25T06:31:13.016Z,25.2
2018-04-25T06:41:12.797Z,25.1
2018-04-25T06:51:11.756Z,25.1
2018-04-25T07:01:10.667Z,25.2
2018-04-25T07:11:09.935Z,25.2
2018-04-25T07:21:09.393Z,25.2
2018-04-25T07:31:08.376Z,25.2
2018-04-25T07:41:07.659Z,25.2
2018-04-25T07:51:06.956Z,25.2
2018-04-25T08:01:05.975Z,25.2
2018-04-25T08:11:05.496Z,25.2
2018-04-25T08:21:04.458Z,25.2
2018-04-25T08:31:03.636Z,25.3
2018-04-25T08:41:03.592Z,25.2
2018-04-25T08:51:02.371Z,25.3
2018-04-25T09:01:01.362Z,25.3
2018-04-25T09:11:00.498Z,25.3
2018-04-25T09:20:59.720Z,25.3
2018-04-25T09:30:58.971Z,25.3
2018-04-25T09:40:58.263Z,25.3
2018-04-25T09:50:57.411Z,25.3
2018-04-25T10:00:57.207Z,25.3
2018-04-25T10:10:57.052Z,25.3
2018-04-25T10:20:55.059Z,25.3
2018-04-25T10:30:54.267Z,25.3
2018-04-25T10:40:53.528Z,25.3
2018-04-25T10:50:52.976Z,25.4
2018-04-25T11:00:51.915Z,25.4
2018-04-25T11:10:51.249Z,25.4
2018-04-25T11:20:50.662Z,25.4
2018-04-25T11:30:49.577Z,25.4
2018-04-25T11:40:48.787Z,25.4
2018-04-25T11:50:48.055Z,25.4
2018-04-25T12:00:47.535Z,25.4
2018-04-25T12:10:46.796Z,25.5
2018-04-25T12:20:45.678Z,25.5
2018-04-25T12:30:45.225Z,25.5
2018-04-25T12:40:44.100Z,25.6
2018-04-25T12:50:43.887Z,25.6
2018-04-25T13:00:42.548Z,25.6
2018-04-25T13:10:41.782Z,25.6
2018-04-25T13:20:41.269Z,25.6
2018-04-25T13:30:40.224Z,25.6
2018-04-25T13:40:39.708Z,25.6
2018-04-25T13:50:38.646Z,25.6
2018-04-25T14:00:37.881Z,25.6
2018-04-25T14:10:37.161Z,25.6
2018-04-25T14:20:36.285Z,25.6
2018-04-25T14:30:35.523Z,25.6
2018-04-25T14:40:35.011Z,25.6
2018-04-25T14:50:34.038Z,25.7
2018-04-25T15:00:33.516Z,25.7
2018-04-25T15:10:32.422Z,25.7
2018-04-25T15:20:31.927Z,25.7
2018-04-25T15:30:30.813Z,25.7
2018-04-25T15:40:30.411Z,25.7
2018-04-25T15:50:29.259Z,25.7
2018-04-25T16:00:28.553Z,25.8
2018-04-25T16:10:27.709Z,25.8
2018-04-25T16:20:27.198Z,25.8
2018-04-25T16:30:26.148Z,25.8
2018-04-25T16:40:25.727Z,25.8
2018-04-25T16:50:24.594Z,25.8
2018-04-25T17:00:24.122Z,25.7
2018-04-25T17:10:23.080Z,25.7
2018-04-25T17:20:22.238Z,25.6
2018-04-25T17:30:21.744Z,25.6
2018-04-25T17:40:20.697Z,25.5
2018-04-25T17:50:19.923Z,25.4
2018-04-25T18:00:19.194Z,25.3
2018-04-25T18:10:18.745Z,25.2
2018-04-25T18:20:17.570Z,25.1
2018-04-25T18:30:16.791Z,25.1
2018-04-25T18:40:16.044Z,25.1
2018-04-25T18:50:15.233Z,25.1
2018-04-25T19:00:14.793Z,24.9
2018-04-25T19:10:13.671Z,24.8
2018-04-25T19:20:12.943Z,24.8
2018-04-25T19:30:12.433Z,25
2018-04-25T19:40:11.337Z,25.1
2018-04-25T19:50:10.774Z,25.2
2018-04-25T20:00:09.792Z,25.3
2018-04-25T20:10:09.277Z,25.4
2018-04-25T20:20:08.965Z,25.4
2018-04-25T20:30:07.485Z,25.4
2018-04-25T20:40:06.944Z,25.5
2018-04-25T20:50:06.335Z,25.5
2018-04-25T21:00:05.105Z,25.6
2018-04-25T21:10:04.310Z,25.6
2018-04-25T21:20:03.827Z,25.6
2018-04-25T21:30:03.124Z,25.6
2018-04-25T21:40:02.263Z,25.6
2018-04-25T21:50:01.481Z,25.6
2018-04-25T22:00:00.711Z,25.6
2018-04-25T22:09:59.717Z,25.6
2018-04-25T22:19:58.848Z,25.6
2018-04-25T22:29:58.406Z,25.6
2018-04-25T22:39:57.881Z,25.6
2018-04-25T22:49:56.665Z,25.6
2018-04-25T22:59:55.726Z,25.6
2018-04-25T23:09:54.945Z,25.6
2018-04-25T23:19:54.300Z,25.7
2018-04-25T23:29:53.392Z,25.7
2018-04-25T23:39:52.607Z,25.7
2018-04-25T23:49:52.112Z,25.6
2018-04-25T23:59:51.035Z,25.7
